createdAt,value
2019-02-14T02:58:03.279Z,6.70
2019-02-14T03:00:32.536Z,6.53
2019-02-14T03:03:01.741Z,6.20
2019-02-14T03:05:31.008Z,5.90
2019-02-14T03:08:00.232Z,6.67
2019-02-14T03:10:29.491Z,6.13
2019-02-14T03:12:58.842Z,6.27
2019-02-14T03:15:28.255Z,6.67
2019-02-14T03:17:57.688Z,6.47
2019-02-14T03:20:26.923Z,6.20
2019-02-14T03:22:56.253Z,6.20
2019-02-14T03:25:25.526Z,7.07
2019-02-14T03:27:54.813Z,6.27
2019-02-14T03:30:24.227Z,6.37
2019-02-14T03:32:53.452Z,6.20
2019-02-14T03:35:22.625Z,7.53
2019-02-14T03:37:51.836Z,7.20
2019-02-14T03:40:21.125Z,6.60
2019-02-14T03:42:50.542Z,6.60
2019-02-14T03:45:19.827Z,6.70
2019-02-14T03:47:49.065Z,7.13
2019-02-14T03:50:18.355Z,6.77
2019-02-14T03:52:47.695Z,6.30
2019-02-14T03:55:16.938Z,6.53
2019-02-14T03:57:46.197Z,6.43
2019-02-14T04:00:15.930Z,6.63
2019-02-14T04:02:45.149Z,6.43
2019-02-14T04:05:14.345Z,7.03
2019-02-14T04:07:43.615Z,6.20
2019-02-14T04:10:13.123Z,6.23
2019-02-14T04:12:42.351Z,6.63
2019-02-14T04:15:13.298Z,5.73
2019-02-14T04:17:42.602Z,6.20
2019-02-14T04:20:11.785Z,6.33
2019-02-14T04:22:41.006Z,6.83
2019-02-14T04:25:10.356Z,6.70
2019-02-14T04:27:39.635Z,6.50
2019-02-14T04:30:09.987Z,6.73
2019-02-14T04:32:39.270Z,5.80
2019-02-14T04:35:08.642Z,6.57
2019-02-14T04:37:37.956Z,6.70
2019-02-14T04:40:08.635Z,6.80
2019-02-14T04:42:38.057Z,6.53
2019-02-14T04:45:07.340Z,6.63
2019-02-14T04:47:36.504Z,6.23
2019-02-14T04:50:06.070Z,5.90
2019-02-14T04:52:35.261Z,6.57
2019-02-14T04:55:04.663Z,6.73
2019-02-14T04:57:33.899Z,7.17
2019-02-14T05:00:03.122Z,7.67
2019-02-14T05:02:32.436Z,7.43
2019-02-14T05:05:01.652Z,6.90
2019-02-14T05:07:30.998Z,6.77
2019-02-14T05:10:00.403Z,7.60
2019-02-14T05:12:39.609Z,7.37
2019-02-14T05:15:08.901Z,7.13
2019-02-14T05:17:38.297Z,7.37
2019-02-14T05:20:08.432Z,6.90
2019-02-14T05:22:37.915Z,7.17
2019-02-14T05:25:07.512Z,7.23
2019-02-14T05:27:36.672Z,6.83
2019-02-14T05:30:06.128Z,6.57
2019-02-14T05:32:35.310Z,7.20
2019-02-14T05:35:04.608Z,7.73
2019-02-14T05:37:33.873Z,8.03
2019-02-14T05:40:03.054Z,7.57
2019-02-14T05:42:32.171Z,7.27
2019-02-14T05:45:01.240Z,7.37
2019-02-14T05:47:30.334Z,7.70
2019-02-14T05:49:59.432Z,6.53
2019-02-14T05:52:28.690Z,8.10
2019-02-14T05:54:57.720Z,8.00
2019-02-14T05:57:27.415Z,6.93
2019-02-14T05:59:56.737Z,8.00
2019-02-14T06:02:25.837Z,7.37
2019-02-14T06:04:54.976Z,8.03
2019-02-14T06:07:24.102Z,7.77
2019-02-14T06:09:53.187Z,7.30
2019-02-14T06:12:22.292Z,8.20
2019-02-14T06:14:51.574Z,7.07
2019-02-14T06:17:20.684Z,7.13
2019-02-14T06:19:49.781Z,7.57
2019-02-14T06:22:18.920Z,8.20
2019-02-14T06:24:48.029Z,6.83
2019-02-14T06:27:17.180Z,6.87
2019-02-14T06:29:46.320Z,7.93
2019-02-14T06:32:15.389Z,7.83
2019-02-14T06:34:44.612Z,7.30
2019-02-14T06:37:13.725Z,7.77
2019-02-14T06:39:42.904Z,8.03
2019-02-14T06:42:12.840Z,8.97
2019-02-14T06:44:41.919Z,7.73
2019-02-14T06:47:11.248Z,8.20
2019-02-14T06:49:40.413Z,8.23
2019-02-14T06:52:09.763Z,8.17
2019-02-14T06:54:39.018Z,7.67
2019-02-14T06:57:08.236Z,8.20
2019-02-14T06:59:37.436Z,7.53
2019-02-14T07:02:08.445Z,8.13
2019-02-14T07:04:37.671Z,8.33
2019-02-14T07:07:06.874Z,7.60
2019-02-14T07:09:36.098Z,9.13
2019-02-14T07:12:05.296Z,8.03
2019-02-14T07:14:34.814Z,8.27
2019-02-14T07:17:03.964Z,8.17
2019-02-14T07:19:33.189Z,8.57
2019-02-14T07:22:02.619Z,7.60
2019-02-14T07:24:32.071Z,8.93
2019-02-14T07:27:01.300Z,9.30
2019-02-14T07:29:30.500Z,7.17
2019-02-14T07:31:59.674Z,7.27
2019-02-14T07:34:28.995Z,8.37
2019-02-14T07:36:58.293Z,8.33
2019-02-14T07:39:28.150Z,7.73
2019-02-14T07:41:57.642Z,7.90
2019-02-14T07:44:26.986Z,7.43
2019-02-14T07:46:56.134Z,8.00
2019-02-14T07:49:37.471Z,8.57
2019-02-14T07:52:07.147Z,8.30
2019-02-14T07:54:39.729Z,7.47
2019-02-14T08:13:14.418Z,6.30
2019-02-14T08:15:43.620Z,7.10
2019-02-14T08:18:13.333Z,6.90
2019-02-14T08:20:42.973Z,6.80
2019-02-14T08:23:14.278Z,6.87
2019-02-14T08:25:43.830Z,6.90
2019-02-14T08:28:17.529Z,6.87
2019-02-14T08:30:46.812Z,7.47
2019-02-14T08:33:24.647Z,8.23
2019-02-14T08:35:53.956Z,8.43
2019-02-14T08:38:26.236Z,8.27
2019-02-14T08:40:55.458Z,7.33
2019-02-14T08:43:27.787Z,8.47
2019-02-14T08:46:04.577Z,8.00
2019-02-14T08:53:15.506Z,11.17
2019-02-14T08:56:11.611Z,8.73
2019-02-14T09:01:54.846Z,8.87
2019-02-14T09:04:24.223Z,8.80
2019-02-14T09:06:53.505Z,9.50
2019-02-14T09:09:22.643Z,9.03
2019-02-14T09:11:51.781Z,10.47
2019-02-14T09:17:48.913Z,8.97
2019-02-14T09:20:18.102Z,8.63
2019-02-14T09:22:47.138Z,8.47
2019-02-14T09:25:16.392Z,8.90
2019-02-14T09:27:45.506Z,8.80
2019-02-14T09:30:14.797Z,8.73
2019-02-14T09:32:43.937Z,9.63
2019-02-14T09:35:13.185Z,11.23
2019-02-14T09:37:42.276Z,10.03
2019-02-14T09:40:12.262Z,10.00
2019-02-14T09:42:42.137Z,10.13
2019-02-14T09:45:11.628Z,9.30
2019-02-14T09:47:40.640Z,9.37
2019-02-14T09:50:10.589Z,10.00
2019-02-14T09:52:39.825Z,11.23
2019-02-14T09:55:09.266Z,11.20
2019-02-14T09:57:38.366Z,11.00
2019-02-14T10:00:09.863Z,12.50
2019-02-14T10:02:39.417Z,11.10
2019-02-14T10:05:08.952Z,10.70
2019-02-14T10:07:38.192Z,10.80
2019-02-14T10:10:09.269Z,11.57
2019-02-14T10:12:38.570Z,10.90
2019-02-14T10:15:08.190Z,12.00
2019-02-14T10:17:37.273Z,10.60
2019-02-14T10:20:07.663Z,10.50
2019-02-14T10:22:36.820Z,10.90
2019-02-14T10:25:06.943Z,9.93
2019-02-14T10:27:36.169Z,9.63
2019-02-14T10:30:06.862Z,9.87
2019-02-14T10:32:35.965Z,8.83
2019-02-14T10:35:05.058Z,9.60
2019-02-14T10:37:34.147Z,9.90
2019-02-14T10:40:03.207Z,9.90
2019-02-14T10:42:32.531Z,8.80
2019-02-14T10:45:01.653Z,7.50
2019-02-14T10:47:30.703Z,7.53
2019-02-14T10:49:59.824Z,8.20
2019-02-14T10:52:28.935Z,7.40
2019-02-14T10:54:58.108Z,6.00
2019-02-14T10:57:27.201Z,3.77
2019-02-14T10:59:56.316Z,4.00
2019-02-14T11:02:25.440Z,3.33
2019-02-14T11:04:54.645Z,3.12
2019-02-14T11:07:23.745Z,2.85
2019-02-14T11:09:52.831Z,1.67
2019-02-14T11:12:21.967Z,1.40
2019-02-14T11:14:50.983Z,1.40
2019-02-14T11:17:20.072Z,1.57
2019-02-14T11:19:49.155Z,1.52
2019-02-14T11:22:18.343Z,1.95
2019-02-14T11:24:47.639Z,2.50
2019-02-14T11:27:16.804Z,2.02
2019-02-14T11:29:45.894Z,2.42
2019-02-14T11:32:15.031Z,1.67
2019-02-14T11:34:44.107Z,2.00
2019-02-14T11:37:13.262Z,1.20
2019-02-14T11:39:42.402Z,3.00
2019-02-14T11:42:11.492Z,1.82
2019-02-14T11:44:40.493Z,1.27
2019-02-14T11:47:09.555Z,0.95
2019-02-14T11:49:38.590Z,1.77
2019-02-14T11:52:07.679Z,1.62
2019-02-14T11:54:36.776Z,2.00
2019-02-14T11:57:10.540Z,2.12
2019-02-14T11:59:40.578Z,2.80
2019-02-14T12:02:09.660Z,1.40
2019-02-14T12:04:38.662Z,1.90
2019-02-14T12:07:07.790Z,1.50
2019-02-14T12:09:36.933Z,1.50
2019-02-14T12:12:06.101Z,1.30
2019-02-14T12:14:35.231Z,2.42
2019-02-14T12:17:04.836Z,1.77
2019-02-14T12:19:33.953Z,1.70
2019-02-14T12:22:03.028Z,3.22
2019-02-14T12:24:32.109Z,5.37
2019-02-14T12:27:01.240Z,1.40
2019-02-14T12:29:30.379Z,2.02
2019-02-14T12:31:59.430Z,1.45
2019-02-14T12:34:28.507Z,1.10
2019-02-14T12:36:57.600Z,1.20
2019-02-14T12:39:26.738Z,3.12
2019-02-14T12:41:55.803Z,1.47
2019-02-14T12:44:24.765Z,1.25
2019-02-14T12:46:53.842Z,1.17
2019-02-14T12:49:22.887Z,1.20
2019-02-14T12:51:51.943Z,1.55
2019-02-14T12:54:21.035Z,1.30
2019-02-14T12:56:50.167Z,1.50
2019-02-14T12:59:19.234Z,0.98
2019-02-14T13:01:48.565Z,0.80
2019-02-14T13:04:17.812Z,0.80
2019-02-14T13:06:47.085Z,0.90
2019-02-14T13:09:20.040Z,1.15
2019-02-14T13:11:47.005Z,1.67
2019-02-14T13:14:16.048Z,1.70
2019-02-14T13:16:45.226Z,1.20
2019-02-14T13:19:14.283Z,1.80
2019-02-14T13:21:43.341Z,1.37
2019-02-14T13:24:12.491Z,1.50
2019-02-14T13:26:41.581Z,1.40
2019-02-14T13:29:10.622Z,1.37
2019-02-14T13:31:39.686Z,1.10
2019-02-14T13:34:08.731Z,1.60
2019-02-14T13:36:37.909Z,2.13
2019-02-14T13:39:08.341Z,1.40
2019-02-14T13:41:37.441Z,1.57
2019-02-14T13:44:06.509Z,1.10
2019-02-14T13:46:35.529Z,1.83
2019-02-14T13:49:04.729Z,2.27
2019-02-14T13:51:34.839Z,0.87
2019-02-14T13:54:03.916Z,0.90
2019-02-14T13:56:33.336Z,1.00
2019-02-14T13:59:02.467Z,1.20
2019-02-14T14:01:33.871Z,1.13
2019-02-14T14:04:02.922Z,0.97
2019-02-14T14:06:32.012Z,1.10
2019-02-14T14:09:01.109Z,1.10
2019-02-14T14:11:30.194Z,0.83
2019-02-14T14:13:59.290Z,1.00
2019-02-14T14:16:28.558Z,1.00
2019-02-14T14:19:05.971Z,1.10
2019-02-14T14:21:28.499Z,1.20
2019-02-14T14:23:57.668Z,0.93
2019-02-14T14:26:26.680Z,0.97
2019-02-14T14:28:55.793Z,1.67
2019-02-14T14:31:24.856Z,0.87
2019-02-14T14:33:53.959Z,1.00
2019-02-14T14:36:23.036Z,0.70
2019-02-14T14:38:52.056Z,0.87
2019-02-14T14:41:21.168Z,1.20
2019-02-14T14:44:18.374Z,1.00
2019-02-14T14:46:57.539Z,1.00
2019-02-14T14:49:26.639Z,1.23
2019-02-14T14:51:55.734Z,0.87
2019-02-14T14:54:24.822Z,1.20
2019-02-14T14:56:53.839Z,1.03
2019-02-14T14:59:22.935Z,1.00
2019-02-14T15:01:52.070Z,0.70
2019-02-14T15:04:21.244Z,0.90
2019-02-14T15:06:50.255Z,4.30
2019-02-14T15:09:19.287Z,0.93
2019-02-14T15:11:48.318Z,0.60
2019-02-14T15:14:17.481Z,0.70
2019-02-14T15:16:46.565Z,0.90
2019-02-14T15:19:15.695Z,0.97
2019-02-14T15:21:44.747Z,0.73
2019-02-14T15:24:13.956Z,0.80
2019-02-14T15:26:43.103Z,0.70
2019-02-14T15:29:12.202Z,1.20
2019-02-14T15:31:41.251Z,0.80
2019-02-14T15:34:10.379Z,0.90
2019-02-14T15:36:39.719Z,0.80
2019-02-14T15:39:08.922Z,1.03
2019-02-14T15:41:38.078Z,1.10
2019-02-14T15:44:07.579Z,0.80
2019-02-14T15:46:40.051Z,0.90
2019-02-14T15:49:09.206Z,1.17
2019-02-14T15:51:41.982Z,0.93
2019-02-14T15:54:11.944Z,1.00
2019-02-14T15:56:41.026Z,0.80
2019-02-14T15:59:10.074Z,1.17
2019-02-14T16:01:39.686Z,1.17
2019-02-14T16:04:09.433Z,1.10
2019-02-14T16:06:38.737Z,2.83
2019-02-14T16:09:07.872Z,0.93
2019-02-14T16:11:38.731Z,0.93
2019-02-14T16:14:07.921Z,1.00
2019-02-14T16:16:36.944Z,1.20
2019-02-14T16:19:06.139Z,1.80
2019-02-14T16:21:35.192Z,1.53
2019-02-14T16:24:04.308Z,1.80
2019-02-14T16:26:35.288Z,1.67
2019-02-14T16:29:04.243Z,1.23
2019-02-14T16:31:33.314Z,1.60
2019-02-14T16:34:02.381Z,1.63
2019-02-14T16:36:32.632Z,4.23
2019-02-14T16:39:01.902Z,1.87
2019-02-14T16:41:30.953Z,2.60
2019-02-14T16:44:00.297Z,4.03
2019-02-14T16:46:29.328Z,2.23
2019-02-14T16:48:58.465Z,2.60
2019-02-14T16:51:27.538Z,2.80
2019-02-14T16:53:56.599Z,2.80
2019-02-14T16:56:26.110Z,2.80
2019-02-14T16:58:55.461Z,2.40
2019-02-14T17:01:24.514Z,2.33
2019-02-14T17:03:53.735Z,2.17
2019-02-14T17:06:22.785Z,3.00
2019-02-14T17:08:51.868Z,2.90
2019-02-14T17:11:20.974Z,2.93
2019-02-14T17:13:50.173Z,2.20
2019-02-14T17:16:19.247Z,3.20
2019-02-14T17:18:48.279Z,3.03
2019-02-14T17:21:17.542Z,2.40
2019-02-14T17:23:46.659Z,3.10
2019-02-14T17:26:15.797Z,2.53
2019-02-14T17:28:44.809Z,2.90
2019-02-14T17:31:13.885Z,2.83
2019-02-14T17:33:46.710Z,2.93
2019-02-14T17:36:15.997Z,3.83
2019-02-14T17:38:45.096Z,3.27
2019-02-14T17:41:14.700Z,3.50
2019-02-14T17:43:43.773Z,3.37
2019-02-14T17:46:12.849Z,3.30
2019-02-14T17:48:41.918Z,3.23
2019-02-14T17:51:11.803Z,4.30
2019-02-14T17:53:40.933Z,4.37
2019-02-14T17:56:10.019Z,3.90
2019-02-14T17:58:39.169Z,4.23
2019-02-14T18:01:08.246Z,4.10
2019-02-14T18:03:37.342Z,2.97
2019-02-14T18:06:08.498Z,3.50
2019-02-14T18:08:37.390Z,4.00
2019-02-14T18:11:06.499Z,4.23
2019-02-14T18:13:35.721Z,3.80
2019-02-14T18:16:04.944Z,5.27
2019-02-14T18:18:34.062Z,4.60
2019-02-14T18:21:03.239Z,4.10
2019-02-14T18:23:32.429Z,4.13
2019-02-14T18:26:01.553Z,4.97
2019-02-14T18:28:30.754Z,4.57
2019-02-14T18:30:59.897Z,4.50
2019-02-14T18:33:28.988Z,4.93
2019-02-14T18:35:58.179Z,4.20
2019-02-14T18:38:27.313Z,4.50
2019-02-14T18:41:03.857Z,5.13
2019-02-14T18:43:27.431Z,5.13
2019-02-14T18:45:56.582Z,4.80
2019-02-14T18:48:25.750Z,4.80
2019-02-14T18:50:55.023Z,7.27
2019-02-14T18:53:24.117Z,6.73
2019-02-14T18:55:53.348Z,5.80
2019-02-14T18:58:26.443Z,5.77
2019-02-14T19:00:53.498Z,6.57
2019-02-14T19:03:22.635Z,5.80
2019-02-14T19:05:52.033Z,8.27
2019-02-14T19:08:21.259Z,6.57
2019-02-14T19:10:50.316Z,5.77
2019-02-14T19:13:19.487Z,5.97
2019-02-14T19:15:49.473Z,5.30
2019-02-14T19:18:18.542Z,5.37
2019-02-14T19:20:47.785Z,5.87
2019-02-14T19:23:24.074Z,5.33
2019-02-14T19:25:47.819Z,4.90
2019-02-14T19:28:17.014Z,5.63
2019-02-14T19:30:46.182Z,4.90
2019-02-14T19:33:15.294Z,5.27
2019-02-14T19:35:44.392Z,5.20
2019-02-14T19:38:13.509Z,4.83
2019-02-14T19:40:42.590Z,5.13
2019-02-14T19:43:11.731Z,6.43
2019-02-14T19:45:40.777Z,6.00
2019-02-14T19:48:09.875Z,5.23
2019-02-14T19:50:38.976Z,5.73
2019-02-14T19:53:11.112Z,5.90
2019-02-14T19:55:40.176Z,6.00
2019-02-14T19:58:09.230Z,6.33
2019-02-14T20:00:38.293Z,5.07
2019-02-14T20:03:07.332Z,5.47
2019-02-14T20:05:36.354Z,5.10
2019-02-14T20:08:05.487Z,6.13
2019-02-14T20:10:34.589Z,5.20
2019-02-14T20:13:03.675Z,6.07
2019-02-14T20:15:37.387Z,5.60
2019-02-14T20:18:03.601Z,6.37
2019-02-14T20:20:32.672Z,5.07
2019-02-14T20:23:01.740Z,5.83
2019-02-14T20:25:30.816Z,5.93
2019-02-14T20:27:59.908Z,5.33
2019-02-14T20:30:28.959Z,6.00
2019-02-14T20:33:04.511Z,6.77
2019-02-14T20:35:28.862Z,5.90
2019-02-14T20:37:57.990Z,5.83
2019-02-14T20:40:27.066Z,5.67
2019-02-14T20:42:56.128Z,5.60
2019-02-14T20:45:25.208Z,5.53
2019-02-14T20:47:57.006Z,6.40
2019-02-14T20:50:25.065Z,5.80
2019-02-14T20:52:54.149Z,6.63
2019-02-14T20:55:23.194Z,5.87
2019-02-14T20:57:52.280Z,5.97
2019-02-14T21:00:32.579Z,5.10
2019-02-14T21:03:01.734Z,6.03
2019-02-14T21:05:31.054Z,4.47
2019-02-14T21:08:00.196Z,5.57
2019-02-14T21:10:29.284Z,5.20
2019-02-14T21:12:58.650Z,5.77
2019-02-14T21:15:27.909Z,5.63
2019-02-14T21:18:04.959Z,4.97
2019-02-14T21:20:34.275Z,5.17
2019-02-14T21:23:03.460Z,6.17
2019-02-14T21:25:33.082Z,5.87
2019-02-14T21:28:02.206Z,5.63
2019-02-14T21:30:35.401Z,5.67
2019-02-14T21:33:02.619Z,6.43
2019-02-14T21:35:32.066Z,7.23
2019-02-14T21:38:01.232Z,6.97
2019-02-14T21:40:30.528Z,6.63
2019-02-14T21:42:59.888Z,7.03
2019-02-14T21:45:29.454Z,13.80
2019-02-14T21:47:58.759Z,7.30
2019-02-14T21:50:28.155Z,6.20
2019-02-14T21:52:57.505Z,6.53
2019-02-14T21:55:26.665Z,6.50
2019-02-14T21:57:56.004Z,6.10
2019-02-14T22:00:25.473Z,8.43
2019-02-14T22:02:54.690Z,6.87
2019-02-14T22:05:26.123Z,6.00
2019-02-14T22:07:55.229Z,6.57
2019-02-14T22:10:24.393Z,5.80
2019-02-14T22:12:53.898Z,5.83
2019-02-14T22:15:23.069Z,5.67
2019-02-14T22:17:52.410Z,5.90
2019-02-14T22:20:21.783Z,5.80
2019-02-14T22:22:51.057Z,5.83
2019-02-14T22:25:20.723Z,5.73
2019-02-14T22:27:49.929Z,6.80
2019-02-14T22:30:19.224Z,5.30
2019-02-14T22:32:48.519Z,5.80
2019-02-14T22:35:17.931Z,5.50
2019-02-14T22:37:47.216Z,5.67
2019-02-14T22:40:16.411Z,5.50
2019-02-14T22:42:47.530Z,5.70
2019-02-14T22:45:16.805Z,5.77
2019-02-14T22:47:45.947Z,5.53
2019-02-14T22:50:15.341Z,6.23
2019-02-14T22:52:44.658Z,5.60
2019-02-14T22:55:13.895Z,5.63
2019-02-14T22:57:43.001Z,4.93
2019-02-14T23:00:34.295Z,5.30
2019-02-14T23:03:03.660Z,5.97
2019-02-14T23:05:33.196Z,5.97
2019-02-14T23:08:03.614Z,4.93
2019-02-14T23:10:32.880Z,5.33
2019-02-14T23:13:02.210Z,5.13
2019-02-14T23:15:31.383Z,5.50
2019-02-14T23:18:00.668Z,5.30
2019-02-14T23:20:31.355Z,5.57
2019-02-14T23:23:00.723Z,5.07
2019-02-14T23:25:29.931Z,5.20
2019-02-14T23:32:46.350Z,5.07
2019-02-14T23:35:49.009Z,4.80
2019-02-14T23:38:36.450Z,5.60
2019-02-14T23:41:46.123Z,5.13
